sensor_id;sensor_type;location;lat;lon;timestamp;pressure;altitude;pressure_sealevel;temperature;humidity
17311;BME280;8773;43.300;0.394;2023-05-10T00:02:25;100459.88;;;14.04;65.58
17311;BME280;8773;43.300;0.394;2023-05-10T00:04:53;100459.63;;;13.90;65.83
17311;BME280;8773;43.300;0.394;2023-05-10T00:07:20;100458.06;;;13.79;65.99
17311;BME280;8773;43.300;0.394;2023-05-10T00:09:48;100443.53;;;13.90;65.83
17311;BME280;8773;43.300;0.394;2023-05-10T00:12:15;100454.38;;;13.80;66.25
17311;BME280;8773;43.300;0.394;2023-05-10T00:14:42;100452.16;;;13.76;66.16
17311;BME280;8773;43.300;0.394;2023-05-10T00:17:11;100460.78;;;13.61;67.05
17311;BME280;8773;43.300;0.394;2023-05-10T00:19:39;100457.19;;;13.53;67.07
17311;BME280;8773;43.300;0.394;2023-05-10T00:22:06;100455.13;;;13.47;67.33
17311;BME280;8773;43.300;0.394;2023-05-10T00:24:33;100451.13;;;13.51;67.29
17311;BME280;8773;43.300;0.394;2023-05-10T00:27:00;100446.38;;;13.62;66.70
17311;BME280;8773;43.300;0.394;2023-05-10T00:29:28;100435.81;;;13.43;67.06
17311;BME280;8773;43.300;0.394;2023-05-10T00:31:55;100446.34;;;13.36;67.32
17311;BME280;8773;43.300;0.394;2023-05-10T00:34:24;100444.94;;;13.50;67.04
17311;BME280;8773;43.300;0.394;2023-05-10T00:36:51;100446.25;;;13.46;66.84
17311;BME280;8773;43.300;0.394;2023-05-10T00:39:19;100441.47;;;13.58;66.06
17311;BME280;8773;43.300;0.394;2023-05-10T00:41:46;100436.03;;;13.50;66.16
17311;BME280;8773;43.300;0.394;2023-05-10T00:44:14;100439.72;;;13.66;65.51
17311;BME280;8773;43.300;0.394;2023-05-10T00:46:41;100437.75;;;13.77;65.16
17311;BME280;8773;43.300;0.394;2023-05-10T00:49:09;100434.47;;;13.91;64.20
17311;BME280;8773;43.300;0.394;2023-05-10T00:51:38;100434.34;;;14.00;64.12
17311;BME280;8773;43.300;0.394;2023-05-10T00:54:05;100426.44;;;13.99;63.09
17311;BME280;8773;43.300;0.394;2023-05-10T00:56:32;100427.00;;;14.19;62.81
17311;BME280;8773;43.300;0.394;2023-05-10T00:59:01;100430.91;;;14.24;62.64
17311;BME280;8773;43.300;0.394;2023-05-10T01:01:28;100418.66;;;14.30;63.00
17311;BME280;8773;43.300;0.394;2023-05-10T01:03:56;100425.22;;;14.27;62.28
17311;BME280;8773;43.300;0.394;2023-05-10T01:06:24;100417.19;;;14.35;61.96
17311;BME280;8773;43.300;0.394;2023-05-10T01:08:53;100416.88;;;14.47;61.53
17311;BME280;8773;43.300;0.394;2023-05-10T01:11:20;100414.13;;;14.30;61.75
17311;BME280;8773;43.300;0.394;2023-05-10T01:13:52;100403.59;;;14.45;61.42
17311;BME280;8773;43.300;0.394;2023-05-10T01:16:22;100406.88;;;14.23;61.34
17311;BME280;8773;43.300;0.394;2023-05-10T01:18:51;100406.06;;;14.30;60.94
17311;BME280;8773;43.300;0.394;2023-05-10T01:21:25;100404.78;;;14.43;61.37
17311;BME280;8773;43.300;0.394;2023-05-10T01:24:12;100401.88;;;14.28;61.21
17311;BME280;8773;43.300;0.394;2023-05-10T01:30:40;100408.75;;;14.30;61.41
17311;BME280;8773;43.300;0.394;2023-05-10T01:33:19;100390.41;;;14.10;60.81
17311;BME280;8773;43.300;0.394;2023-05-10T01:35:54;100401.53;;;14.31;60.88
17311;BME280;8773;43.300;0.394;2023-05-10T01:38:29;100407.06;;;14.21;60.70
17311;BME280;8773;43.300;0.394;2023-05-10T01:41:07;100409.19;;;14.01;61.37
17311;BME280;8773;43.300;0.394;2023-05-10T01:43:44;100408.06;;;14.20;61.12
17311;BME280;8773;43.300;0.394;2023-05-10T01:46:17;100412.63;;;14.28;61.58
17311;BME280;8773;43.300;0.394;2023-05-10T01:48:53;100412.59;;;14.20;60.98
17311;BME280;8773;43.300;0.394;2023-05-10T01:51:24;100407.53;;;14.17;61.20
17311;BME280;8773;43.300;0.394;2023-05-10T01:54:00;100407.34;;;14.02;60.81
17311;BME280;8773;43.300;0.394;2023-05-10T01:56:30;100404.28;;;13.97;61.01
17311;BME280;8773;43.300;0.394;2023-05-10T01:59:00;100411.63;;;13.87;61.55
17311;BME280;8773;43.300;0.394;2023-05-10T02:01:31;100406.41;;;13.85;61.59
17311;BME280;8773;43.300;0.394;2023-05-10T02:04:01;100407.22;;;13.78;62.03
17311;BME280;8773;43.300;0.394;2023-05-10T02:06:30;100405.06;;;13.81;62.12
17311;BME280;8773;43.300;0.394;2023-05-10T02:09:00;100413.41;;;13.78;62.41
17311;BME280;8773;43.300;0.394;2023-05-10T02:11:29;100407.44;;;13.58;62.92
17311;BME280;8773;43.300;0.394;2023-05-10T02:13:58;100415.56;;;13.66;62.93
17311;BME280;8773;43.300;0.394;2023-05-10T02:16:26;100415.75;;;13.47;63.10
17311;BME280;8773;43.300;0.394;2023-05-10T02:18:55;100413.13;;;13.55;63.80
17311;BME280;8773;43.300;0.394;2023-05-10T02:21:26;100417.69;;;13.63;63.22
17311;BME280;8773;43.300;0.394;2023-05-10T02:23:55;100412.16;;;13.64;63.41
17311;BME280;8773;43.300;0.394;2023-05-10T02:26:24;100411.06;;;13.75;63.04
17311;BME280;8773;43.300;0.394;2023-05-10T02:28:53;100416.25;;;13.77;62.83
17311;BME280;8773;43.300;0.394;2023-05-10T02:31:22;100419.44;;;13.72;63.39
17311;BME280;8773;43.300;0.394;2023-05-10T02:33:50;100422.28;;;13.70;63.55
17311;BME280;8773;43.300;0.394;2023-05-10T02:36:19;100426.97;;;13.68;64.27
17311;BME280;8773;43.300;0.394;2023-05-10T02:38:50;100421.09;;;13.47;64.85
17311;BME280;8773;43.300;0.394;2023-05-10T02:41:20;100430.53;;;13.51;65.13
17311;BME280;8773;43.300;0.394;2023-05-10T02:43:49;100426.00;;;13.52;65.35
17311;BME280;8773;43.300;0.394;2023-05-10T02:46:17;100426.78;;;13.44;65.79
17311;BME280;8773;43.300;0.394;2023-05-10T02:48:45;100427.31;;;13.48;65.39
17311;BME280;8773;43.300;0.394;2023-05-10T02:51:14;100422.50;;;13.33;65.87
17311;BME280;8773;43.300;0.394;2023-05-10T02:53:44;100424.97;;;13.27;66.15
17311;BME280;8773;43.300;0.394;2023-05-10T02:56:16;100416.59;;;13.22;66.31
17311;BME280;8773;43.300;0.394;2023-05-10T02:58:47;100416.59;;;13.22;66.31
17311;BME280;8773;43.300;0.394;2023-05-10T03:01:14;100428.31;;;13.03;66.63
17311;BME280;8773;43.300;0.394;2023-05-10T03:03:41;100425.47;;;13.04;66.88
17311;BME280;8773;43.300;0.394;2023-05-10T03:06:09;100424.56;;;12.96;66.88
17311;BME280;8773;43.300;0.394;2023-05-10T03:08:36;100425.13;;;12.82;67.27
17311;BME280;8773;43.300;0.394;2023-05-10T03:11:16;100427.47;;;12.85;67.28
17311;BME280;8773;43.300;0.394;2023-05-10T03:13:56;100420.63;;;12.82;67.23
17311;BME280;8773;43.300;0.394;2023-05-10T03:16:35;100418.28;;;12.87;66.92
17311;BME280;8773;43.300;0.394;2023-05-10T03:19:12;100420.97;;;12.87;66.81
17311;BME280;8773;43.300;0.394;2023-05-10T03:21:47;100410.06;;;12.81;67.07
17311;BME280;8773;43.300;0.394;2023-05-10T03:24:20;100405.28;;;12.57;67.84
17311;BME280;8773;43.300;0.394;2023-05-10T03:26:49;100407.50;;;12.61;67.61
17311;BME280;8773;43.300;0.394;2023-05-10T03:29:20;100400.72;;;12.67;67.16
17311;BME280;8773;43.300;0.394;2023-05-10T03:31:49;100401.00;;;12.64;67.24
17311;BME280;8773;43.300;0.394;2023-05-10T03:34:16;100395.66;;;12.64;67.18
17311;BME280;8773;43.300;0.394;2023-05-10T03:36:43;100404.06;;;12.69;67.03
17311;BME280;8773;43.300;0.394;2023-05-10T03:39:11;100400.72;;;12.67;67.80
17311;BME280;8773;43.300;0.394;2023-05-10T03:41:38;100403.47;;;12.75;67.18
17311;BME280;8773;43.300;0.394;2023-05-10T03:44:07;100395.88;;;12.70;67.76
17311;BME280;8773;43.300;0.394;2023-05-10T03:46:34;100391.44;;;12.79;66.63
17311;BME280;8773;43.300;0.394;2023-05-10T03:49:02;100384.44;;;12.86;67.03
17311;BME280;8773;43.300;0.394;2023-05-10T03:51:29;100378.72;;;12.81;67.17
17311;BME280;8773;43.300;0.394;2023-05-10T03:53:56;100381.19;;;12.74;67.20
17311;BME280;8773;43.300;0.394;2023-05-10T03:56:24;100385.41;;;12.77;67.18
17311;BME280;8773;43.300;0.394;2023-05-10T03:58:51;100381.41;;;12.81;67.07
17311;BME280;8773;43.300;0.394;2023-05-10T04:01:20;100376.78;;;12.91;66.84
17311;BME280;8773;43.300;0.394;2023-05-10T04:03:48;100371.66;;;12.98;66.37
17311;BME280;8773;43.300;0.394;2023-05-10T04:06:15;100372.81;;;12.95;66.76
17311;BME280;8773;43.300;0.394;2023-05-10T04:08:43;100379.28;;;12.67;67.34
17311;BME280;8773;43.300;0.394;2023-05-10T04:11:11;100375.78;;;12.92;67.45
17311;BME280;8773;43.300;0.394;2023-05-10T04:13:39;100379.78;;;12.88;67.56
17311;BME280;8773;43.300;0.394;2023-05-10T04:16:06;100381.28;;;13.08;66.68
17311;BME280;8773;43.300;0.394;2023-05-10T04:18:35;100383.34;;;13.15;66.13
17311;BME280;8773;43.300;0.394;2023-05-10T04:21:02;100371.69;;;13.24;66.16
17311;BME280;8773;43.300;0.394;2023-05-10T04:23:30;100378.03;;;13.23;65.70
17311;BME280;8773;43.300;0.394;2023-05-10T04:26:00;100372.72;;;13.31;65.57
17311;BME280;8773;43.300;0.394;2023-05-10T04:28:27;100382.06;;;13.27;65.60
17311;BME280;8773;43.300;0.394;2023-05-10T04:31:01;100383.88;;;13.18;65.59
17311;BME280;8773;43.300;0.394;2023-05-10T04:33:28;100388.41;;;13.18;65.60
17311;BME280;8773;43.300;0.394;2023-05-10T04:35:57;100397.13;;;13.20;65.51
17311;BME280;8773;43.300;0.394;2023-05-10T04:38:24;100381.91;;;13.02;65.62
17311;BME280;8773;43.300;0.394;2023-05-10T04:40:52;100385.66;;;13.10;65.72
17311;BME280;8773;43.300;0.394;2023-05-10T04:43:19;100378.66;;;13.17;64.91
17311;BME280;8773;43.300;0.394;2023-05-10T04:45:46;100384.25;;;13.23;64.80
17311;BME280;8773;43.300;0.394;2023-05-10T04:48:14;100376.19;;;13.23;64.45
17311;BME280;8773;43.300;0.394;2023-05-10T04:50:42;100378.06;;;13.31;64.26
17311;BME280;8773;43.300;0.394;2023-05-10T04:53:11;100380.50;;;13.42;63.75
17311;BME280;8773;43.300;0.394;2023-05-10T04:55:42;100386.56;;;13.18;64.14
17311;BME280;8773;43.300;0.394;2023-05-10T04:58:09;100386.94;;;13.23;64.02
17311;BME280;8773;43.300;0.394;2023-05-10T05:00:37;100387.44;;;13.27;64.47
17311;BME280;8773;43.300;0.394;2023-05-10T05:03:04;100387.66;;;13.33;64.25
17311;BME280;8773;43.300;0.394;2023-05-10T05:05:32;100378.50;;;13.18;64.49
17311;BME280;8773;43.300;0.394;2023-05-10T05:07:59;100385.78;;;13.26;64.00
17311;BME280;8773;43.300;0.394;2023-05-10T05:10:28;100389.94;;;13.20;64.25
17311;BME280;8773;43.300;0.394;2023-05-10T05:12:55;100389.69;;;13.39;63.81
17311;BME280;8773;43.300;0.394;2023-05-10T05:15:22;100382.19;;;13.43;63.04
17311;BME280;8773;43.300;0.394;2023-05-10T05:17:50;100379.59;;;13.33;63.41
17311;BME280;8773;43.300;0.394;2023-05-10T05:20:17;100384.81;;;13.35;63.65
17311;BME280;8773;43.300;0.394;2023-05-10T05:22:45;100390.50;;;13.58;63.00
17311;BME280;8773;43.300;0.394;2023-05-10T05:25:13;100404.28;;;13.63;62.41
17311;BME280;8773;43.300;0.394;2023-05-10T05:27:41;100403.53;;;13.53;62.79
17311;BME280;8773;43.300;0.394;2023-05-10T05:30:09;100416.84;;;13.36;63.42
17311;BME280;8773;43.300;0.394;2023-05-10T05:32:38;100418.72;;;13.44;63.57
17311;BME280;8773;43.300;0.394;2023-05-10T05:35:06;100421.03;;;13.39;64.60
17311;BME280;8773;43.300;0.394;2023-05-10T05:37:33;100425.03;;;13.35;64.95
17311;BME280;8773;43.300;0.394;2023-05-10T05:40:01;100421.41;;;13.44;64.59
17311;BME280;8773;43.300;0.394;2023-05-10T05:42:28;100421.63;;;13.68;64.04
17311;BME280;8773;43.300;0.394;2023-05-10T05:44:57;100422.06;;;13.64;64.37
17311;BME280;8773;43.300;0.394;2023-05-10T05:47:24;100430.84;;;13.74;64.66
17311;BME280;8773;43.300;0.394;2023-05-10T05:49:52;100429.72;;;13.85;64.60
17311;BME280;8773;43.300;0.394;2023-05-10T05:52:19;100429.81;;;14.01;64.46
17311;BME280;8773;43.300;0.394;2023-05-10T05:54:46;100439.13;;;14.23;63.37
17311;BME280;8773;43.300;0.394;2023-05-10T05:57:14;100439.28;;;14.21;63.01
17311;BME280;8773;43.300;0.394;2023-05-10T05:59:41;100430.44;;;14.37;62.81
17311;BME280;8773;43.300;0.394;2023-05-10T06:02:10;100428.13;;;14.50;62.91
17311;BME280;8773;43.300;0.394;2023-05-10T06:04:38;100434.19;;;14.52;62.99
17311;BME280;8773;43.300;0.394;2023-05-10T06:07:08;100439.56;;;14.52;63.05
17311;BME280;8773;43.300;0.394;2023-05-10T06:09:36;100441.78;;;14.73;61.67
17311;BME280;8773;43.300;0.394;2023-05-10T06:12:03;100444.69;;;14.80;61.29
17311;BME280;8773;43.300;0.394;2023-05-10T06:14:31;100440.31;;;15.27;60.50
17311;BME280;8773;43.300;0.394;2023-05-10T06:16:58;100436.47;;;16.01;59.50
17311;BME280;8773;43.300;0.394;2023-05-10T06:19:27;100436.78;;;16.77;57.54
17311;BME280;8773;43.300;0.394;2023-05-10T06:21:55;100440.56;;;16.90;56.34
17311;BME280;8773;43.300;0.394;2023-05-10T06:24:22;100440.41;;;16.61;57.39
17311;BME280;8773;43.300;0.394;2023-05-10T06:26:49;100425.88;;;17.53;54.26
17311;BME280;8773;43.300;0.394;2023-05-10T06:29:17;100433.69;;;17.11;54.33
17311;BME280;8773;43.300;0.394;2023-05-10T06:31:44;100441.25;;;18.26;52.62
17311;BME280;8773;43.300;0.394;2023-05-10T06:34:12;100430.66;;;19.03;51.92
17311;BME280;8773;43.300;0.394;2023-05-10T06:36:40;100434.50;;;19.58;48.20
17311;BME280;8773;43.300;0.394;2023-05-10T06:39:08;100434.56;;;19.44;49.01
17311;BME280;8773;43.300;0.394;2023-05-10T06:41:35;100445.75;;;19.13;49.12
17311;BME280;8773;43.300;0.394;2023-05-10T06:44:03;100441.69;;;18.45;50.98
17311;BME280;8773;43.300;0.394;2023-05-10T06:46:30;100448.03;;;17.63;52.06
17311;BME280;8773;43.300;0.394;2023-05-10T06:48:58;100454.69;;;17.38;51.79
17311;BME280;8773;43.300;0.394;2023-05-10T06:51:25;100458.59;;;17.73;52.23
17311;BME280;8773;43.300;0.394;2023-05-10T06:53:54;100458.16;;;18.64;51.81
17311;BME280;8773;43.300;0.394;2023-05-10T06:56:21;100458.06;;;18.94;50.35
17311;BME280;8773;43.300;0.394;2023-05-10T06:58:48;100448.31;;;18.42;50.91
17311;BME280;8773;43.300;0.394;2023-05-10T07:01:16;100447.75;;;18.32;50.75
17311;BME280;8773;43.300;0.394;2023-05-10T07:03:43;100436.53;;;17.99;50.92
17311;BME280;8773;43.300;0.394;2023-05-10T07:06:11;100462.00;;;17.52;51.49
17311;BME280;8773;43.300;0.394;2023-05-10T07:08:58;100449.41;;;17.22;54.59
17311;BME280;8773;43.300;0.394;2023-05-10T07:11:26;100461.16;;;17.29;54.11
17311;BME280;8773;43.300;0.394;2023-05-10T07:13:53;100456.19;;;17.41;54.89
17311;BME280;8773;43.300;0.394;2023-05-10T07:16:20;100454.19;;;17.57;54.49
17311;BME280;8773;43.300;0.394;2023-05-10T07:18:48;100453.91;;;17.67;53.69
17311;BME280;8773;43.300;0.394;2023-05-10T07:21:15;100453.59;;;17.99;53.11
17311;BME280;8773;43.300;0.394;2023-05-10T07:23:43;100451.66;;;18.59;51.51
17311;BME280;8773;43.300;0.394;2023-05-10T07:26:12;100456.56;;;18.70;50.74
17311;BME280;8773;43.300;0.394;2023-05-10T07:28:40;100453.38;;;18.81;50.71
17311;BME280;8773;43.300;0.394;2023-05-10T07:31:16;100444.53;;;18.94;50.13
17311;BME280;8773;43.300;0.394;2023-05-10T07:33:43;100447.53;;;20.11;48.24
17311;BME280;8773;43.300;0.394;2023-05-10T07:36:11;100442.66;;;20.88;45.27
17311;BME280;8773;43.300;0.394;2023-05-10T07:38:38;100446.84;;;21.50;44.35
17311;BME280;8773;43.300;0.394;2023-05-10T07:41:07;100445.41;;;21.41;43.71
17311;BME280;8773;43.300;0.394;2023-05-10T07:43:36;100446.84;;;21.24;43.57
17311;BME280;8773;43.300;0.394;2023-05-10T07:46:04;100443.81;;;20.73;44.31
17311;BME280;8773;43.300;0.394;2023-05-10T07:48:31;100449.22;;;20.53;45.06
17311;BME280;8773;43.300;0.394;2023-05-10T07:50:59;100444.03;;;20.71;46.36
17311;BME280;8773;43.300;0.394;2023-05-10T07:53:26;100453.66;;;20.80;45.87
17311;BME280;8773;43.300;0.394;2023-05-10T07:55:57;100443.44;;;20.82;43.58
17311;BME280;8773;43.300;0.394;2023-05-10T07:58:24;100444.75;;;21.13;45.11
17311;BME280;8773;43.300;0.394;2023-05-10T08:00:54;100447.06;;;21.16;43.46
17311;BME280;8773;43.300;0.394;2023-05-10T08:03:21;100442.25;;;21.71;43.48
17311;BME280;8773;43.300;0.394;2023-05-10T08:05:48;100437.78;;;22.09;42.32
17311;BME280;8773;43.300;0.394;2023-05-10T08:08:16;100454.38;;;21.35;42.78
17311;BME280;8773;43.300;0.394;2023-05-10T08:10:44;100452.72;;;21.34;44.78
17311;BME280;8773;43.300;0.394;2023-05-10T08:13:11;100447.88;;;20.96;43.39
17311;BME280;8773;43.300;0.394;2023-05-10T08:15:38;100456.59;;;20.24;45.01
17311;BME280;8773;43.300;0.394;2023-05-10T08:18:07;100450.22;;;20.04;44.78
17311;BME280;8773;43.300;0.394;2023-05-10T08:20:35;100459.78;;;19.44;46.78
17311;BME280;8773;43.300;0.394;2023-05-10T08:23:02;100459.09;;;19.35;47.76
17311;BME280;8773;43.300;0.394;2023-05-10T08:25:30;100461.22;;;19.19;47.80
17311;BME280;8773;43.300;0.394;2023-05-10T08:27:58;100460.44;;;19.25;48.05
17311;BME280;8773;43.300;0.394;2023-05-10T08:30:25;100450.41;;;19.19;48.34
17311;BME280;8773;43.300;0.394;2023-05-10T08:32:52;100456.34;;;18.86;48.58
17311;BME280;8773;43.300;0.394;2023-05-10T08:35:21;100458.28;;;18.42;50.09
17311;BME280;8773;43.300;0.394;2023-05-10T08:37:48;100458.97;;;18.29;48.63
17311;BME280;8773;43.300;0.394;2023-05-10T08:40:16;100449.81;;;18.30;49.99
17311;BME280;8773;43.300;0.394;2023-05-10T08:42:55;100445.59;;;18.57;50.29
17311;BME280;8773;43.300;0.394;2023-05-10T08:45:27;100447.88;;;18.75;49.90
17311;BME280;8773;43.300;0.394;2023-05-10T08:48:00;100447.22;;;18.94;49.23
17311;BME280;8773;43.300;0.394;2023-05-10T08:50:30;100442.47;;;18.75;50.22
17311;BME280;8773;43.300;0.394;2023-05-10T08:53:00;100447.31;;;18.79;49.11
17311;BME280;8773;43.300;0.394;2023-05-10T08:55:28;100445.22;;;18.60;48.51
17311;BME280;8773;43.300;0.394;2023-05-10T08:57:56;100435.94;;;18.90;48.35
17311;BME280;8773;43.300;0.394;2023-05-10T09:00:23;100438.06;;;18.95;48.74
17311;BME280;8773;43.300;0.394;2023-05-10T09:02:51;100435.25;;;19.24;48.72
17311;BME280;8773;43.300;0.394;2023-05-10T09:05:18;100438.03;;;19.31;47.84
17311;BME280;8773;43.300;0.394;2023-05-10T09:07:48;100433.19;;;19.05;46.27
17311;BME280;8773;43.300;0.394;2023-05-10T09:10:15;100431.59;;;19.32;48.40
17311;BME280;8773;43.300;0.394;2023-05-10T09:12:47;100432.16;;;19.27;44.77
17311;BME280;8773;43.300;0.394;2023-05-10T09:15:18;100420.06;;;19.51;45.95
17311;BME280;8773;43.300;0.394;2023-05-10T09:17:47;100423.13;;;19.70;45.82
17311;BME280;8773;43.300;0.394;2023-05-10T09:20:16;100425.00;;;19.20;46.36
17311;BME280;8773;43.300;0.394;2023-05-10T09:22:44;100420.50;;;18.84;47.78
17311;BME280;8773;43.300;0.394;2023-05-10T09:25:14;100435.38;;;18.74;48.02
17311;BME280;8773;43.300;0.394;2023-05-10T09:27:44;100428.47;;;18.20;47.70
17311;BME280;8773;43.300;0.394;2023-05-10T09:30:15;100420.31;;;17.84;47.92
17311;BME280;8773;43.300;0.394;2023-05-10T09:32:45;100426.25;;;17.65;49.53
17311;BME280;8773;43.300;0.394;2023-05-10T09:35:15;100421.97;;;17.56;49.74
17311;BME280;8773;43.300;0.394;2023-05-10T09:37:44;100430.59;;;17.51;48.02
17311;BME280;8773;43.300;0.394;2023-05-10T09:40:14;100418.91;;;17.74;49.18
17311;BME280;8773;43.300;0.394;2023-05-10T09:42:51;100417.94;;;18.11;48.30
17311;BME280;8773;43.300;0.394;2023-05-10T09:45:19;100417.53;;;18.79;49.30
17311;BME280;8773;43.300;0.394;2023-05-10T09:47:47;100414.50;;;19.10;47.82
17311;BME280;8773;43.300;0.394;2023-05-10T09:50:15;100412.16;;;19.28;45.91
17311;BME280;8773;43.300;0.394;2023-05-10T09:52:47;100416.94;;;19.05;45.46
17311;BME280;8773;43.300;0.394;2023-05-10T09:55:17;100410.94;;;18.31;45.55
17311;BME280;8773;43.300;0.394;2023-05-10T09:57:45;100421.25;;;18.57;46.42
17311;BME280;8773;43.300;0.394;2023-05-10T10:00:17;100408.28;;;18.52;45.76
17311;BME280;8773;43.300;0.394;2023-05-10T10:02:46;100411.72;;;18.61;45.30
17311;BME280;8773;43.300;0.394;2023-05-10T10:05:14;100414.19;;;18.77;46.23
17311;BME280;8773;43.300;0.394;2023-05-10T10:07:42;100406.47;;;18.74;42.57
17311;BME280;8773;43.300;0.394;2023-05-10T10:10:10;100411.28;;;18.79;44.73
17311;BME280;8773;43.300;0.394;2023-05-10T10:12:39;100412.25;;;18.20;45.41
17311;BME280;8773;43.300;0.394;2023-05-10T10:15:08;100412.69;;;18.96;44.76
17311;BME280;8773;43.300;0.394;2023-05-10T10:17:36;100407.34;;;19.52;42.63
17311;BME280;8773;43.300;0.394;2023-05-10T10:20:05;100407.31;;;19.45;41.96
17311;BME280;8773;43.300;0.394;2023-05-10T10:22:32;100406.63;;;19.64;42.99
17311;BME280;8773;43.300;0.394;2023-05-10T10:25:00;100395.75;;;19.99;42.80
17311;BME280;8773;43.300;0.394;2023-05-10T10:27:36;100399.69;;;20.38;41.87
17311;BME280;8773;43.300;0.394;2023-05-10T10:30:21;100399.13;;;20.55;40.08
17311;BME280;8773;43.300;0.394;2023-05-10T10:33:11;100400.78;;;20.63;39.76
17311;BME280;8773;43.300;0.394;2023-05-10T10:35:55;100397.28;;;20.82;40.38
17311;BME280;8773;43.300;0.394;2023-05-10T10:38:25;100393.41;;;20.30;41.31
17311;BME280;8773;43.300;0.394;2023-05-10T10:41:02;100389.84;;;20.30;40.80
17311;BME280;8773;43.300;0.394;2023-05-10T10:43:30;100385.16;;;20.04;41.20
17311;BME280;8773;43.300;0.394;2023-05-10T10:46:14;100391.06;;;20.21;40.78
17311;BME280;8773;43.300;0.394;2023-05-10T10:48:47;100385.56;;;20.08;38.91
17311;BME280;8773;43.300;0.394;2023-05-10T10:51:14;100383.94;;;19.72;41.05
17311;BME280;8773;43.300;0.394;2023-05-10T10:53:43;100391.94;;;19.52;42.53
17311;BME280;8773;43.300;0.394;2023-05-10T10:56:11;100395.41;;;19.18;43.35
17311;BME280;8773;43.300;0.394;2023-05-10T10:58:40;100401.31;;;18.43;45.30
17311;BME280;8773;43.300;0.394;2023-05-10T11:01:13;100394.78;;;18.01;46.97
17311;BME280;8773;43.300;0.394;2023-05-10T11:03:55;100398.13;;;17.22;47.97
17311;BME280;8773;43.300;0.394;2023-05-10T11:06:42;100392.91;;;17.06;49.11
17311;BME280;8773;43.300;0.394;2023-05-10T11:09:10;100384.16;;;17.56;47.35
17311;BME280;8773;43.300;0.394;2023-05-10T11:11:52;100387.63;;;17.79;46.99
17311;BME280;8773;43.300;0.394;2023-05-10T11:14:20;100387.06;;;17.69;45.48
17311;BME280;8773;43.300;0.394;2023-05-10T11:16:49;100384.41;;;18.20;44.54
17311;BME280;8773;43.300;0.394;2023-05-10T11:19:17;100377.19;;;17.61;45.73
17311;BME280;8773;43.300;0.394;2023-05-10T11:21:46;100374.06;;;18.09;45.80
17311;BME280;8773;43.300;0.394;2023-05-10T11:24:15;100381.00;;;17.67;46.33
17311;BME280;8773;43.300;0.394;2023-05-10T11:26:43;100390.75;;;17.53;46.22
17311;BME280;8773;43.300;0.394;2023-05-10T11:29:12;100413.38;;;17.52;47.28
17311;BME280;8773;43.300;0.394;2023-05-10T11:31:43;100421.63;;;16.98;47.50
17311;BME280;8773;43.300;0.394;2023-05-10T11:34:23;100418.56;;;15.86;51.96
17311;BME280;8773;43.300;0.394;2023-05-10T11:36:51;100416.97;;;15.20;55.44
17311;BME280;8773;43.300;0.394;2023-05-10T11:39:19;100414.25;;;15.36;57.26
17311;BME280;8773;43.300;0.394;2023-05-10T11:41:48;100407.38;;;15.17;59.30
17311;BME280;8773;43.300;0.394;2023-05-10T11:44:16;100396.00;;;15.70;57.13
17311;BME280;8773;43.300;0.394;2023-05-10T11:46:43;100389.22;;;16.53;55.59
17311;BME280;8773;43.300;0.394;2023-05-10T11:49:12;100382.28;;;17.42;52.36
17311;BME280;8773;43.300;0.394;2023-05-10T11:51:40;100370.59;;;18.15;52.64
17311;BME280;8773;43.300;0.394;2023-05-10T11:54:08;100364.47;;;18.78;49.86
17311;BME280;8773;43.300;0.394;2023-05-10T11:56:36;100355.94;;;19.58;46.53
17311;BME280;8773;43.300;0.394;2023-05-10T11:59:03;100346.69;;;19.87;43.94
17311;BME280;8773;43.300;0.394;2023-05-10T12:01:31;100354.06;;;19.59;45.26
17311;BME280;8773;43.300;0.394;2023-05-10T12:03:59;100359.63;;;19.23;45.83
17311;BME280;8773;43.300;0.394;2023-05-10T12:06:29;100355.00;;;18.89;49.57
17311;BME280;8773;43.300;0.394;2023-05-10T12:08:58;100351.00;;;18.85;45.77
17311;BME280;8773;43.300;0.394;2023-05-10T12:11:26;100351.03;;;18.91;46.13
17311;BME280;8773;43.300;0.394;2023-05-10T12:13:54;100356.44;;;19.13;43.69
17311;BME280;8773;43.300;0.394;2023-05-10T12:16:23;100356.19;;;19.35;42.79
17311;BME280;8773;43.300;0.394;2023-05-10T12:18:52;100365.53;;;19.33;50.81
17311;BME280;8773;43.300;0.394;2023-05-10T12:21:21;100362.09;;;19.18;48.44
17311;BME280;8773;43.300;0.394;2023-05-10T12:23:51;100381.81;;;18.48;53.37
17311;BME280;8773;43.300;0.394;2023-05-10T12:26:21;100375.56;;;18.11;53.43
17311;BME280;8773;43.300;0.394;2023-05-10T12:28:49;100379.59;;;17.71;54.97
17311;BME280;8773;43.300;0.394;2023-05-10T12:31:16;100381.94;;;17.59;56.36
17311;BME280;8773;43.300;0.394;2023-05-10T12:33:44;100378.91;;;18.13;54.87
17311;BME280;8773;43.300;0.394;2023-05-10T12:36:14;100375.88;;;18.38;52.69
17311;BME280;8773;43.300;0.394;2023-05-10T12:38:42;100375.06;;;18.58;53.07
17311;BME280;8773;43.300;0.394;2023-05-10T12:41:12;100366.06;;;18.73;52.88
17311;BME280;8773;43.300;0.394;2023-05-10T12:43:40;100369.75;;;18.86;52.20
17311;BME280;8773;43.300;0.394;2023-05-10T12:46:09;100371.69;;;19.20;53.38
17311;BME280;8773;43.300;0.394;2023-05-10T12:48:37;100368.09;;;19.41;52.54
17311;BME280;8773;43.300;0.394;2023-05-10T12:51:06;100359.53;;;19.65;52.23
17311;BME280;8773;43.300;0.394;2023-05-10T12:53:33;100360.13;;;19.33;49.91
17311;BME280;8773;43.300;0.394;2023-05-10T12:56:01;100360.50;;;19.58;48.63
17311;BME280;8773;43.300;0.394;2023-05-10T12:58:29;100363.38;;;19.91;49.12
17311;BME280;8773;43.300;0.394;2023-05-10T13:01:02;100363.03;;;20.00;49.23
17311;BME280;8773;43.300;0.394;2023-05-10T13:03:30;100372.19;;;19.58;47.46
17311;BME280;8773;43.300;0.394;2023-05-10T13:05:57;100367.69;;;19.16;50.14
17311;BME280;8773;43.300;0.394;2023-05-10T13:08:24;100368.34;;;18.97;51.45
17311;BME280;8773;43.300;0.394;2023-05-10T13:10:52;100359.00;;;18.99;52.05
17311;BME280;8773;43.300;0.394;2023-05-10T13:13:19;100357.44;;;18.84;50.60
17311;BME280;8773;43.300;0.394;2023-05-10T13:15:48;100351.19;;;18.83;50.03